Aeroporto :
LOGIN :

Iscrizione | Disclaimer

   EN    FR    IT 

 










Sommario :    VFR   VFR Marginale   IFR   IFR Intensivo   IFR Molto Intensivo
Visibilità : 
Base nubi : 
>= 8 km
>= 3000ft
5 / 8 km
1000 / 3000 ft
1500m / 5 km
500 / 1000 ft
800 / 1500m
200 / 500 ft
< 800m
< 200 ft
Simboli :   Temporali  Nebbia  Neve Forte  Precipitazioni Forti  Vento > 20 kt
SIGMETs :   Varie  Temporali  Ghiacco  Turbolenza  Onda orograficha  Ceneri Vulcaniche






- Altitudine del aeroporto : 21 ft
- Codice IATA : VST


ESOW - Stockholm Västerås

ULTIMO METAR :
  • 071020Z 25011KT 210V290 9000 BKN012 09/05 Q1017 R19/09//95

METARs OBSOLETI :
  • 070950Z 25010KT 220V280 9000 BKN012 09/05 Q1017 R19/09//95
  • 070920Z 24011KT 9999 BKN013 09/05 Q1017 R19/09//95
  • 070850Z 23010KT 190V270 9999 BKN015 09/05 Q1017 R19/09//95
  • 070820Z 23009G21KT 200V270 9999 BKN016 08/03 Q1017 R19/09//95
  • 070750Z 21009KT 9999 FEW015 BKN020 08/02 Q1017 R19/09//95

TAF TAF ESOW
Valido dal 07 a 09 ore il 07 a 15 ore UTC


070830Z 0709/0715 20009KT 9999 SCT015 BKN020
BECMG 0709/0711 26012KT
TEMPO 0709/0711 BKN010
TEMPO 0711/0715 31015G28KT



MetMap, La meteo Aeronautica in un colpo d'occhio ! - Copyright ORBIFLY Dicembre 2007 - Disclaimer

ORBIFLY MET'MAP TEAM :

Programmazione e sviluppo : Alexandra Zaïnal
Concezione : Baudouin d'Aumeries
Aiuto per la programmazione : Marc-Olivier Méhu
Supporto tecnico e logistico : Manuel Goepfert
Aiuto per la traduzione : Arnaldo La Scala

Contatto : metmap@orbifly.com




FONTI E CREDITI :

   NOAA